sensor_id;sensor_type;location;lat;lon;timestamp;P1;durP1;ratioP1;P2;durP2;ratioP2
68479;SDS011;55469;48.934;12.050;2023-04-25T00:01:04;1.20;;;1.10;;
68479;SDS011;55469;48.934;12.050;2023-04-25T00:03:31;1.20;;;1.10;;
68479;SDS011;55469;48.934;12.050;2023-04-25T00:05:58;1.27;;;1.17;;
68479;SDS011;55469;48.934;12.050;2023-04-25T00:08:27;1.17;;;1.00;;
68479;SDS011;55469;48.934;12.050;2023-04-25T00:10:55;1.00;;;1.00;;
68479;SDS011;55469;48.934;12.050;2023-04-25T00:13:24;1.08;;;1.08;;
68479;SDS011;55469;48.934;12.050;2023-04-25T00:15:51;1.55;;;1.10;;
68479;SDS011;55469;48.934;12.050;2023-04-25T00:18:21;1.50;;;1.00;;
68479;SDS011;55469;48.934;12.050;2023-04-25T00:20:47;1.20;;;1.10;;
68479;SDS011;55469;48.934;12.050;2023-04-25T00:23:13;1.30;;;1.20;;
68479;SDS011;55469;48.934;12.050;2023-04-25T00:25:49;1.40;;;1.30;;
68479;SDS011;55469;48.934;12.050;2023-04-25T00:28:16;1.00;;;1.00;;
68479;SDS011;55469;48.934;12.050;2023-04-25T00:30:42;1.50;;;1.40;;
68479;SDS011;55469;48.934;12.050;2023-04-25T00:33:08;1.20;;;1.10;;
68479;SDS011;55469;48.934;12.050;2023-04-25T00:35:34;1.10;;;1.08;;
68479;SDS011;55469;48.934;12.050;2023-04-25T00:38:01;1.08;;;1.02;;
68479;SDS011;55469;48.934;12.050;2023-04-25T00:40:27;1.00;;;1.00;;
68479;SDS011;55469;48.934;12.050;2023-04-25T00:42:53;1.20;;;1.10;;
68479;SDS011;55469;48.934;12.050;2023-04-25T00:45:20;1.13;;;1.00;;
68479;SDS011;55469;48.934;12.050;2023-04-25T00:47:45;1.10;;;1.05;;
68479;SDS011;55469;48.934;12.050;2023-04-25T00:50:12;1.10;;;1.10;;
68479;SDS011;55469;48.934;12.050;2023-04-25T00:52:40;1.00;;;1.00;;
68479;SDS011;55469;48.934;12.050;2023-04-25T00:55:09;1.17;;;1.08;;
68479;SDS011;55469;48.934;12.050;2023-04-25T00:57:36;1.25;;;1.15;;
68479;SDS011;55469;48.934;12.050;2023-04-25T01:00:03;1.38;;;1.27;;
68479;SDS011;55469;48.934;12.050;2023-04-25T01:02:31;1.00;;;1.00;;
68479;SDS011;55469;48.934;12.050;2023-04-25T01:04:58;1.25;;;1.15;;
68479;SDS011;55469;48.934;12.050;2023-04-25T01:07:24;1.20;;;1.10;;
68479;SDS011;55469;48.934;12.050;2023-04-25T01:09:53;1.02;;;1.00;;
68479;SDS011;55469;48.934;12.050;2023-04-25T01:12:19;1.20;;;1.10;;
68479;SDS011;55469;48.934;12.050;2023-04-25T01:14:45;1.30;;;1.20;;
68479;SDS011;55469;48.934;12.050;2023-04-25T01:17:11;1.70;;;1.25;;
68479;SDS011;55469;48.934;12.050;2023-04-25T01:19:38;1.23;;;1.13;;
68479;SDS011;55469;48.934;12.050;2023-04-25T01:22:03;1.15;;;1.10;;
68479;SDS011;55469;48.934;12.050;2023-04-25T01:24:31;1.40;;;1.30;;
68479;SDS011;55469;48.934;12.050;2023-04-25T01:26:58;1.35;;;1.25;;
68479;SDS011;55469;48.934;12.050;2023-04-25T01:29:25;1.88;;;1.05;;
68479;SDS011;55469;48.934;12.050;2023-04-25T01:31:53;1.02;;;0.98;;
68479;SDS011;55469;48.934;12.050;2023-04-25T01:34:19;1.30;;;1.20;;
68479;SDS011;55469;48.934;12.050;2023-04-25T01:36:47;1.30;;;1.20;;
68479;SDS011;55469;48.934;12.050;2023-04-25T01:39:15;1.50;;;1.33;;
68479;SDS011;55469;48.934;12.050;2023-04-25T01:41:42;1.38;;;1.23;;
68479;SDS011;55469;48.934;12.050;2023-04-25T01:44:08;1.33;;;1.20;;
68479;SDS011;55469;48.934;12.050;2023-04-25T01:46:34;1.33;;;1.23;;
68479;SDS011;55469;48.934;12.050;2023-04-25T01:49:00;1.60;;;1.13;;
68479;SDS011;55469;48.934;12.050;2023-04-25T01:51:27;1.30;;;1.20;;
68479;SDS011;55469;48.934;12.050;2023-04-25T01:53:53;1.00;;;1.00;;
68479;SDS011;55469;48.934;12.050;2023-04-25T01:56:20;1.20;;;1.10;;
68479;SDS011;55469;48.934;12.050;2023-04-25T01:58:46;1.30;;;1.20;;
68479;SDS011;55469;48.934;12.050;2023-04-25T02:01:11;1.27;;;1.17;;
68479;SDS011;55469;48.934;12.050;2023-04-25T02:03:37;1.20;;;1.10;;
68479;SDS011;55469;48.934;12.050;2023-04-25T02:06:03;1.42;;;1.23;;
68479;SDS011;55469;48.934;12.050;2023-04-25T02:08:29;1.20;;;1.10;;
68479;SDS011;55469;48.934;12.050;2023-04-25T02:10:55;1.33;;;1.23;;
68479;SDS011;55469;48.934;12.050;2023-04-25T02:13:21;1.33;;;1.00;;
68479;SDS011;55469;48.934;12.050;2023-04-25T02:15:46;1.20;;;1.10;;
68479;SDS011;55469;48.934;12.050;2023-04-25T02:18:12;1.92;;;1.05;;
68479;SDS011;55469;48.934;12.050;2023-04-25T02:20:38;1.05;;;1.05;;
68479;SDS011;55469;48.934;12.050;2023-04-25T02:23:03;1.35;;;1.00;;
68479;SDS011;55469;48.934;12.050;2023-04-25T02:25:29;1.23;;;1.13;;
68479;SDS011;55469;48.934;12.050;2023-04-25T02:27:55;1.40;;;1.30;;
68479;SDS011;55469;48.934;12.050;2023-04-25T02:30:20;1.02;;;1.02;;
68479;SDS011;55469;48.934;12.050;2023-04-25T02:32:46;1.15;;;1.05;;
68479;SDS011;55469;48.934;12.050;2023-04-25T02:35:12;1.10;;;1.00;;
68479;SDS011;55469;48.934;12.050;2023-04-25T02:37:38;1.20;;;1.10;;
68479;SDS011;55469;48.934;12.050;2023-04-25T02:40:05;1.33;;;1.23;;
68479;SDS011;55469;48.934;12.050;2023-04-25T02:42:32;1.23;;;1.15;;
68479;SDS011;55469;48.934;12.050;2023-04-25T02:44:57;1.10;;;1.10;;
68479;SDS011;55469;48.934;12.050;2023-04-25T02:47:23;1.30;;;1.20;;
68479;SDS011;55469;48.934;12.050;2023-04-25T02:49:49;1.40;;;1.10;;
68479;SDS011;55469;48.934;12.050;2023-04-25T02:52:15;1.00;;;1.00;;
68479;SDS011;55469;48.934;12.050;2023-04-25T02:54:41;1.45;;;1.33;;
68479;SDS011;55469;48.934;12.050;2023-04-25T02:57:07;1.33;;;1.20;;
68479;SDS011;55469;48.934;12.050;2023-04-25T02:59:33;1.17;;;1.10;;
68479;SDS011;55469;48.934;12.050;2023-04-25T03:01:58;1.30;;;1.20;;
68479;SDS011;55469;48.934;12.050;2023-04-25T03:04:24;1.35;;;1.10;;
68479;SDS011;55469;48.934;12.050;2023-04-25T03:06:50;1.30;;;1.20;;
68479;SDS011;55469;48.934;12.050;2023-04-25T03:09:16;1.23;;;1.13;;
68479;SDS011;55469;48.934;12.050;2023-04-25T03:11:43;1.30;;;1.20;;
68479;SDS011;55469;48.934;12.050;2023-04-25T03:14:10;1.65;;;1.17;;
68479;SDS011;55469;48.934;12.050;2023-04-25T03:16:36;1.17;;;1.08;;
68479;SDS011;55469;48.934;12.050;2023-04-25T03:19:02;1.58;;;1.20;;
68479;SDS011;55469;48.934;12.050;2023-04-25T03:21:29;2.10;;;1.40;;
68479;SDS011;55469;48.934;12.050;2023-04-25T03:23:57;1.15;;;1.10;;
68479;SDS011;55469;48.934;12.050;2023-04-25T03:26:23;1.40;;;1.30;;
68479;SDS011;55469;48.934;12.050;2023-04-25T03:28:49;1.35;;;1.25;;
68479;SDS011;55469;48.934;12.050;2023-04-25T03:31:15;1.10;;;1.10;;
68479;SDS011;55469;48.934;12.050;2023-04-25T03:33:41;0.95;;;0.93;;
68479;SDS011;55469;48.934;12.050;2023-04-25T03:36:06;1.30;;;1.20;;
68479;SDS011;55469;48.934;12.050;2023-04-25T03:38:33;1.30;;;1.20;;
68479;SDS011;55469;48.934;12.050;2023-04-25T03:40:58;1.20;;;1.13;;
68479;SDS011;55469;48.934;12.050;2023-04-25T03:43:24;1.35;;;1.25;;
68479;SDS011;55469;48.934;12.050;2023-04-25T03:45:50;1.45;;;1.35;;
68479;SDS011;55469;48.934;12.050;2023-04-25T03:48:16;1.40;;;1.30;;
68479;SDS011;55469;48.934;12.050;2023-04-25T03:50:41;1.77;;;1.35;;
68479;SDS011;55469;48.934;12.050;2023-04-25T03:53:07;1.30;;;1.20;;
68479;SDS011;55469;48.934;12.050;2023-04-25T03:55:33;1.25;;;1.15;;
68479;SDS011;55469;48.934;12.050;2023-04-25T03:57:58;1.30;;;1.20;;
68479;SDS011;55469;48.934;12.050;2023-04-25T04:00:24;1.92;;;1.27;;
68479;SDS011;55469;48.934;12.050;2023-04-25T04:02:50;1.67;;;1.40;;
68479;SDS011;55469;48.934;12.050;2023-04-25T04:05:16;1.30;;;1.20;;
68479;SDS011;55469;48.934;12.050;2023-04-25T04:07:42;1.27;;;1.17;;
68479;SDS011;55469;48.934;12.050;2023-04-25T04:10:11;1.40;;;1.30;;
68479;SDS011;55469;48.934;12.050;2023-04-25T04:12:37;1.33;;;1.23;;
68479;SDS011;55469;48.934;12.050;2023-04-25T04:15:03;1.58;;;1.30;;
68479;SDS011;55469;48.934;12.050;2023-04-25T04:17:30;1.27;;;1.17;;
68479;SDS011;55469;48.934;12.050;2023-04-25T04:19:57;1.25;;;1.15;;
68479;SDS011;55469;48.934;12.050;2023-04-25T04:22:22;1.25;;;1.15;;
68479;SDS011;55469;48.934;12.050;2023-04-25T04:24:49;1.45;;;1.30;;
68479;SDS011;55469;48.934;12.050;2023-04-25T04:27:15;1.73;;;1.10;;
68479;SDS011;55469;48.934;12.050;2023-04-25T04:29:44;1.45;;;1.35;;
68479;SDS011;55469;48.934;12.050;2023-04-25T04:32:11;1.45;;;1.35;;
68479;SDS011;55469;48.934;12.050;2023-04-25T04:34:38;2.83;;;1.90;;
68479;SDS011;55469;48.934;12.050;2023-04-25T04:37:04;1.92;;;1.30;;
68479;SDS011;55469;48.934;12.050;2023-04-25T04:39:31;1.50;;;1.40;;
68479;SDS011;55469;48.934;12.050;2023-04-25T04:42:01;1.40;;;1.30;;
68479;SDS011;55469;48.934;12.050;2023-04-25T04:44:29;1.58;;;1.48;;
68479;SDS011;55469;48.934;12.050;2023-04-25T04:46:57;1.40;;;1.30;;
68479;SDS011;55469;48.934;12.050;2023-04-25T04:49:24;1.58;;;1.38;;
68479;SDS011;55469;48.934;12.050;2023-04-25T04:51:50;1.50;;;1.40;;
68479;SDS011;55469;48.934;12.050;2023-04-25T04:54:15;1.30;;;1.20;;
68479;SDS011;55469;48.934;12.050;2023-04-25T04:56:41;1.60;;;1.50;;
68479;SDS011;55469;48.934;12.050;2023-04-25T04:59:07;1.63;;;1.45;;
68479;SDS011;55469;48.934;12.050;2023-04-25T05:01:33;1.42;;;1.33;;
68479;SDS011;55469;48.934;12.050;2023-04-25T05:04:02;1.27;;;1.17;;
68479;SDS011;55469;48.934;12.050;2023-04-25T05:06:28;1.70;;;1.40;;
68479;SDS011;55469;48.934;12.050;2023-04-25T05:08:55;1.50;;;1.40;;
68479;SDS011;55469;48.934;12.050;2023-04-25T05:11:21;1.88;;;1.55;;
68479;SDS011;55469;48.934;12.050;2023-04-25T05:13:49;1.38;;;1.25;;
68479;SDS011;55469;48.934;12.050;2023-04-25T05:16:16;1.40;;;1.30;;
68479;SDS011;55469;48.934;12.050;2023-04-25T05:18:42;1.65;;;1.55;;
68479;SDS011;55469;48.934;12.050;2023-04-25T05:21:07;1.35;;;1.25;;
68479;SDS011;55469;48.934;12.050;2023-04-25T05:23:33;1.58;;;1.45;;
68479;SDS011;55469;48.934;12.050;2023-04-25T05:25:59;2.20;;;1.77;;
68479;SDS011;55469;48.934;12.050;2023-04-25T05:28:25;1.65;;;1.55;;
68479;SDS011;55469;48.934;12.050;2023-04-25T05:30:50;1.45;;;1.35;;
68479;SDS011;55469;48.934;12.050;2023-04-25T05:33:17;1.60;;;1.50;;
68479;SDS011;55469;48.934;12.050;2023-04-25T05:35:43;2.55;;;1.58;;
68479;SDS011;55469;48.934;12.050;2023-04-25T05:38:09;2.10;;;1.90;;
68479;SDS011;55469;48.934;12.050;2023-04-25T05:40:34;1.73;;;1.33;;
68479;SDS011;55469;48.934;12.050;2023-04-25T05:43:00;1.85;;;1.67;;
68479;SDS011;55469;48.934;12.050;2023-04-25T05:45:26;1.63;;;1.40;;
68479;SDS011;55469;48.934;12.050;2023-04-25T05:47:52;1.70;;;1.60;;
68479;SDS011;55469;48.934;12.050;2023-04-25T05:50:17;1.48;;;1.30;;
68479;SDS011;55469;48.934;12.050;2023-04-25T05:52:43;3.95;;;1.90;;
68479;SDS011;55469;48.934;12.050;2023-04-25T05:55:10;4.03;;;2.28;;
68479;SDS011;55469;48.934;12.050;2023-04-25T05:57:36;2.38;;;1.58;;
68479;SDS011;55469;48.934;12.050;2023-04-25T06:00:02;1.83;;;1.50;;
68479;SDS011;55469;48.934;12.050;2023-04-25T06:02:33;1.58;;;1.48;;
68479;SDS011;55469;48.934;12.050;2023-04-25T06:04:59;1.70;;;1.60;;
68479;SDS011;55469;48.934;12.050;2023-04-25T06:07:28;2.47;;;1.77;;
68479;SDS011;55469;48.934;12.050;2023-04-25T06:09:55;3.88;;;1.80;;
68479;SDS011;55469;48.934;12.050;2023-04-25T06:12:20;2.35;;;1.70;;
68479;SDS011;55469;48.934;12.050;2023-04-25T06:14:46;1.70;;;1.52;;
68479;SDS011;55469;48.934;12.050;2023-04-25T06:17:12;1.63;;;1.52;;
68479;SDS011;55469;48.934;12.050;2023-04-25T06:19:38;1.50;;;1.40;;
68479;SDS011;55469;48.934;12.050;2023-04-25T06:22:04;1.70;;;1.60;;
68479;SDS011;55469;48.934;12.050;2023-04-25T06:24:29;1.70;;;1.60;;
68479;SDS011;55469;48.934;12.050;2023-04-25T06:26:55;2.15;;;1.58;;
68479;SDS011;55469;48.934;12.050;2023-04-25T06:29:21;2.05;;;1.85;;
68479;SDS011;55469;48.934;12.050;2023-04-25T06:31:46;1.80;;;1.70;;
68479;SDS011;55469;48.934;12.050;2023-04-25T06:34:12;1.90;;;1.50;;
68479;SDS011;55469;48.934;12.050;2023-04-25T06:36:38;1.67;;;1.58;;
68479;SDS011;55469;48.934;12.050;2023-04-25T06:39:04;1.75;;;1.60;;
68479;SDS011;55469;48.934;12.050;2023-04-25T06:41:29;1.73;;;1.63;;
68479;SDS011;55469;48.934;12.050;2023-04-25T06:43:55;2.17;;;1.60;;
68479;SDS011;55469;48.934;12.050;2023-04-25T06:46:21;3.47;;;1.63;;
68479;SDS011;55469;48.934;12.050;2023-04-25T06:48:46;1.85;;;1.58;;
68479;SDS011;55469;48.934;12.050;2023-04-25T06:51:12;1.70;;;1.60;;
68479;SDS011;55469;48.934;12.050;2023-04-25T06:53:38;1.65;;;1.55;;
68479;SDS011;55469;48.934;12.050;2023-04-25T06:56:05;1.70;;;1.60;;
68479;SDS011;55469;48.934;12.050;2023-04-25T06:58:31;1.70;;;1.58;;
68479;SDS011;55469;48.934;12.050;2023-04-25T07:00:56;1.70;;;1.60;;
68479;SDS011;55469;48.934;12.050;2023-04-25T07:03:22;1.63;;;1.52;;
68479;SDS011;55469;48.934;12.050;2023-04-25T07:05:49;2.55;;;1.70;;
68479;SDS011;55469;48.934;12.050;2023-04-25T07:08:15;2.05;;;1.50;;
68479;SDS011;55469;48.934;12.050;2023-04-25T07:10:42;1.55;;;1.45;;
68479;SDS011;55469;48.934;12.050;2023-04-25T07:13:07;1.77;;;1.60;;
68479;SDS011;55469;48.934;12.050;2023-04-25T07:15:33;2.58;;;1.67;;
68479;SDS011;55469;48.934;12.050;2023-04-25T07:17:59;2.60;;;1.73;;
68479;SDS011;55469;48.934;12.050;2023-04-25T07:20:25;1.80;;;1.65;;
68479;SDS011;55469;48.934;12.050;2023-04-25T07:22:52;2.55;;;1.73;;
68479;SDS011;55469;48.934;12.050;2023-04-25T07:25:18;2.03;;;1.75;;
68479;SDS011;55469;48.934;12.050;2023-04-25T07:27:45;2.00;;;1.70;;
68479;SDS011;55469;48.934;12.050;2023-04-25T07:30:11;1.70;;;1.60;;
68479;SDS011;55469;48.934;12.050;2023-04-25T07:32:38;2.28;;;1.55;;
68479;SDS011;55469;48.934;12.050;2023-04-25T07:35:04;1.80;;;1.70;;
68479;SDS011;55469;48.934;12.050;2023-04-25T07:37:32;1.65;;;1.48;;
68479;SDS011;55469;48.934;12.050;2023-04-25T07:39:58;1.95;;;1.67;;
68479;SDS011;55469;48.934;12.050;2023-04-25T07:42:24;2.88;;;1.70;;
68479;SDS011;55469;48.934;12.050;2023-04-25T07:44:50;2.25;;;1.80;;
68479;SDS011;55469;48.934;12.050;2023-04-25T07:47:16;1.75;;;1.60;;
68479;SDS011;55469;48.934;12.050;2023-04-25T07:49:44;2.00;;;1.80;;
68479;SDS011;55469;48.934;12.050;2023-04-25T07:52:10;2.00;;;1.70;;
68479;SDS011;55469;48.934;12.050;2023-04-25T07:54:36;2.08;;;1.70;;
68479;SDS011;55469;48.934;12.050;2023-04-25T07:57:02;1.70;;;1.60;;
68479;SDS011;55469;48.934;12.050;2023-04-25T07:59:27;1.70;;;1.60;;
68479;SDS011;55469;48.934;12.050;2023-04-25T08:01:53;2.50;;;1.65;;
68479;SDS011;55469;48.934;12.050;2023-04-25T08:04:19;2.10;;;1.90;;
68479;SDS011;55469;48.934;12.050;2023-04-25T08:06:45;1.98;;;1.80;;
68479;SDS011;55469;48.934;12.050;2023-04-25T08:09:11;1.95;;;1.75;;
68479;SDS011;55469;48.934;12.050;2023-04-25T08:11:37;3.00;;;1.60;;
68479;SDS011;55469;48.934;12.050;2023-04-25T08:14:03;2.00;;;1.60;;
68479;SDS011;55469;48.934;12.050;2023-04-25T08:16:28;3.28;;;1.60;;
68479;SDS011;55469;48.934;12.050;2023-04-25T08:18:55;1.95;;;1.75;;
68479;SDS011;55469;48.934;12.050;2023-04-25T08:21:20;1.60;;;1.50;;
68479;SDS011;55469;48.934;12.050;2023-04-25T08:23:46;1.75;;;1.65;;
68479;SDS011;55469;48.934;12.050;2023-04-25T08:26:12;2.70;;;1.55;;
68479;SDS011;55469;48.934;12.050;2023-04-25T08:28:37;1.77;;;1.63;;
68479;SDS011;55469;48.934;12.050;2023-04-25T08:31:03;2.28;;;1.60;;
68479;SDS011;55469;48.934;12.050;2023-04-25T08:33:29;2.67;;;1.80;;
68479;SDS011;55469;48.934;12.050;2023-04-25T08:35:55;1.52;;;1.42;;
68479;SDS011;55469;48.934;12.050;2023-04-25T08:38:21;1.85;;;1.60;;
68479;SDS011;55469;48.934;12.050;2023-04-25T08:40:48;2.00;;;1.60;;
68479;SDS011;55469;48.934;12.050;2023-04-25T08:43:18;1.75;;;1.63;;
68479;SDS011;55469;48.934;12.050;2023-04-25T08:45:45;1.95;;;1.77;;
68479;SDS011;55469;48.934;12.050;2023-04-25T08:48:12;1.50;;;1.40;;
68479;SDS011;55469;48.934;12.050;2023-04-25T08:50:53;1.70;;;1.60;;
68479;SDS011;55469;48.934;12.050;2023-04-25T08:53:28;1.65;;;1.50;;
68479;SDS011;55469;48.934;12.050;2023-04-25T08:55:57;2.65;;;1.85;;
68479;SDS011;55469;48.934;12.050;2023-04-25T08:58:26;1.90;;;1.63;;
68479;SDS011;55469;48.934;12.050;2023-04-25T09:00:53;2.00;;;1.60;;
68479;SDS011;55469;48.934;12.050;2023-04-25T09:03:19;2.50;;;1.50;;
68479;SDS011;55469;48.934;12.050;2023-04-25T09:05:44;1.73;;;1.60;;
68479;SDS011;55469;48.934;12.050;2023-04-25T09:08:10;1.90;;;1.65;;
68479;SDS011;55469;48.934;12.050;2023-04-25T09:10:36;1.40;;;1.30;;
68479;SDS011;55469;48.934;12.050;2023-04-25T09:13:06;1.77;;;1.67;;
68479;SDS011;55469;48.934;12.050;2023-04-25T09:15:50;1.63;;;1.52;;
68479;SDS011;55469;48.934;12.050;2023-04-25T09:18:22;1.70;;;1.50;;
68479;SDS011;55469;48.934;12.050;2023-04-25T09:20:55;2.05;;;1.48;;
68479;SDS011;55469;48.934;12.050;2023-04-25T09:23:31;1.60;;;1.38;;
68479;SDS011;55469;48.934;12.050;2023-04-25T09:26:10;1.55;;;1.40;;
68479;SDS011;55469;48.934;12.050;2023-04-25T09:28:39;1.60;;;1.50;;
68479;SDS011;55469;48.934;12.050;2023-04-25T09:31:05;1.42;;;1.20;;
68479;SDS011;55469;48.934;12.050;2023-04-25T09:33:36;1.50;;;1.40;;
68479;SDS011;55469;48.934;12.050;2023-04-25T09:36:06;2.10;;;1.73;;
68479;SDS011;55469;48.934;12.050;2023-04-25T09:38:43;2.00;;;1.40;;
68479;SDS011;55469;48.934;12.050;2023-04-25T09:41:10;2.40;;;1.50;;
68479;SDS011;55469;48.934;12.050;2023-04-25T09:43:37;1.83;;;1.40;;
68479;SDS011;55469;48.934;12.050;2023-04-25T09:46:08;1.92;;;1.50;;
68479;SDS011;55469;48.934;12.050;2023-04-25T09:48:35;1.85;;;1.48;;
68479;SDS011;55469;48.934;12.050;2023-04-25T09:51:11;1.75;;;1.50;;
68479;SDS011;55469;48.934;12.050;2023-04-25T09:53:43;1.75;;;1.45;;
68479;SDS011;55469;48.934;12.050;2023-04-25T09:56:12;1.60;;;1.50;;
68479;SDS011;55469;48.934;12.050;2023-04-25T09:58:41;2.13;;;1.52;;
68479;SDS011;55469;48.934;12.050;2023-04-25T10:01:08;1.58;;;1.45;;
68479;SDS011;55469;48.934;12.050;2023-04-25T10:03:39;1.52;;;1.40;;
68479;SDS011;55469;48.934;12.050;2023-04-25T10:06:11;1.63;;;1.52;;
68479;SDS011;55469;48.934;12.050;2023-04-25T10:08:39;1.67;;;1.50;;
68479;SDS011;55469;48.934;12.050;2023-04-25T10:11:07;1.80;;;1.50;;
68479;SDS011;55469;48.934;12.050;2023-04-25T10:13:34;2.60;;;1.60;;
68479;SDS011;55469;48.934;12.050;2023-04-25T10:16:02;1.88;;;1.42;;
68479;SDS011;55469;48.934;12.050;2023-04-25T10:18:30;2.97;;;1.42;;
68479;SDS011;55469;48.934;12.050;2023-04-25T10:21:01;1.80;;;1.70;;
68479;SDS011;55469;48.934;12.050;2023-04-25T10:23:30;1.58;;;1.48;;
68479;SDS011;55469;48.934;12.050;2023-04-25T10:25:57;1.80;;;1.70;;
68479;SDS011;55469;48.934;12.050;2023-04-25T10:28:23;1.70;;;1.60;;
68479;SDS011;55469;48.934;12.050;2023-04-25T10:33:33;1.60;;;1.50;;
68479;SDS011;55469;48.934;12.050;2023-04-25T10:36:14;1.75;;;1.65;;
68479;SDS011;55469;48.934;12.050;2023-04-25T10:38:44;2.47;;;1.50;;
68479;SDS011;55469;48.934;12.050;2023-04-25T10:41:11;1.60;;;1.50;;
68479;SDS011;55469;48.934;12.050;2023-04-25T10:43:42;2.47;;;1.40;;
68479;SDS011;55469;48.934;12.050;2023-04-25T10:46:15;1.70;;;1.60;;
68479;SDS011;55469;48.934;12.050;2023-04-25T10:48:53;1.63;;;1.52;;
68479;SDS011;55469;48.934;12.050;2023-04-25T10:51:31;1.80;;;1.70;;
68479;SDS011;55469;48.934;12.050;2023-04-25T10:53:59;2.28;;;1.60;;
68479;SDS011;55469;48.934;12.050;2023-04-25T10:56:28;1.70;;;1.60;;
68479;SDS011;55469;48.934;12.050;2023-04-25T11:01:35;2.72;;;1.83;;
68479;SDS011;55469;48.934;12.050;2023-04-25T11:04:03;2.00;;;1.70;;
68479;SDS011;55469;48.934;12.050;2023-04-25T11:09:32;2.45;;;1.65;;
68479;SDS011;55469;48.934;12.050;2023-04-25T11:12:04;1.98;;;1.77;;
68479;SDS011;55469;48.934;12.050;2023-04-25T11:14:32;2.65;;;2.08;;
68479;SDS011;55469;48.934;12.050;2023-04-25T11:16:58;1.92;;;1.52;;
68479;SDS011;55469;48.934;12.050;2023-04-25T11:19:25;1.50;;;1.40;;
68479;SDS011;55469;48.934;12.050;2023-04-25T11:21:55;1.83;;;1.73;;
68479;SDS011;55469;48.934;12.050;2023-04-25T11:24:28;2.72;;;1.75;;
68479;SDS011;55469;48.934;12.050;2023-04-25T11:26:59;1.60;;;1.50;;
68479;SDS011;55469;48.934;12.050;2023-04-25T11:29:30;1.58;;;1.48;;
68479;SDS011;55469;48.934;12.050;2023-04-25T11:31:56;1.60;;;1.50;;
68479;SDS011;55469;48.934;12.050;2023-04-25T11:34:23;2.17;;;1.73;;
68479;SDS011;55469;48.934;12.050;2023-04-25T11:36:50;1.50;;;1.40;;
68479;SDS011;55469;48.934;12.050;2023-04-25T11:39:18;1.75;;;1.40;;
68479;SDS011;55469;48.934;12.050;2023-04-25T11:41:44;2.08;;;1.50;;
68479;SDS011;55469;48.934;12.050;2023-04-25T11:44:10;1.25;;;1.15;;
68479;SDS011;55469;48.934;12.050;2023-04-25T11:46:36;1.60;;;1.40;;
68479;SDS011;55469;48.934;12.050;2023-04-25T11:49:02;1.40;;;1.30;;
68479;SDS011;55469;48.934;12.050;2023-04-25T11:51:29;1.92;;;1.25;;
68479;SDS011;55469;48.934;12.050;2023-04-25T11:53:56;1.50;;;1.40;;
68479;SDS011;55469;48.934;12.050;2023-04-25T11:56:22;1.60;;;1.30;;
68479;SDS011;55469;48.934;12.050;2023-04-25T11:58:57;1.67;;;1.35;;
68479;SDS011;55469;48.934;12.050;2023-04-25T12:01:29;1.42;;;1.33;;
68479;SDS011;55469;48.934;12.050;2023-04-25T12:03:57;2.10;;;1.40;;
68479;SDS011;55469;48.934;12.050;2023-04-25T12:06:28;1.52;;;1.33;;
68479;SDS011;55469;48.934;12.050;2023-04-25T12:09:01;2.88;;;1.48;;
68479;SDS011;55469;48.934;12.050;2023-04-25T12:11:35;1.70;;;1.60;;
68479;SDS011;55469;48.934;12.050;2023-04-25T12:14:10;1.50;;;1.40;;
68479;SDS011;55469;48.934;12.050;2023-04-25T12:16:44;1.50;;;1.40;;
68479;SDS011;55469;48.934;12.050;2023-04-25T12:19:15;1.60;;;1.50;;
68479;SDS011;55469;48.934;12.050;2023-04-25T12:21:41;2.90;;;1.45;;
68479;SDS011;55469;48.934;12.050;2023-04-25T12:29:26;1.40;;;1.30;;
68479;SDS011;55469;48.934;12.050;2023-04-25T12:31:54;1.45;;;1.30;;
68479;SDS011;55469;48.934;12.050;2023-04-25T12:34:20;2.20;;;1.52;;
68479;SDS011;55469;48.934;12.050;2023-04-25T12:36:47;1.38;;;1.25;;
68479;SDS011;55469;48.934;12.050;2023-04-25T12:39:17;1.60;;;1.50;;
68479;SDS011;55469;48.934;12.050;2023-04-25T12:41:47;1.70;;;1.60;;
68479;SDS011;55469;48.934;12.050;2023-04-25T12:44:13;1.58;;;1.48;;
68479;SDS011;55469;48.934;12.050;2023-04-25T12:46:39;1.30;;;1.20;;
68479;SDS011;55469;48.934;12.050;2023-04-25T12:49:06;1.48;;;1.38;;
68479;SDS011;55469;48.934;12.050;2023-04-25T12:51:33;1.38;;;1.27;;
68479;SDS011;55469;48.934;12.050;2023-04-25T12:54:02;1.77;;;1.50;;
68479;SDS011;55469;48.934;12.050;2023-04-25T12:56:30;1.30;;;1.20;;
68479;SDS011;55469;48.934;12.050;2023-04-25T12:58:57;1.98;;;1.55;;
68479;SDS011;55469;48.934;12.050;2023-04-25T13:01:23;1.60;;;1.50;;
68479;SDS011;55469;48.934;12.050;2023-04-25T13:03:50;1.30;;;1.20;;
68479;SDS011;55469;48.934;12.050;2023-04-25T13:06:16;2.17;;;1.45;;
68479;SDS011;55469;48.934;12.050;2023-04-25T13:08:44;2.28;;;1.40;;
68479;SDS011;55469;48.934;12.050;2023-04-25T13:11:10;1.50;;;1.40;;
68479;SDS011;55469;48.934;12.050;2023-04-25T13:13:36;3.90;;;1.48;;
68479;SDS011;55469;48.934;12.050;2023-04-25T13:16:03;1.63;;;1.25;;
68479;SDS011;55469;48.934;12.050;2023-04-25T13:18:30;2.05;;;1.35;;
68479;SDS011;55469;48.934;12.050;2023-04-25T13:20:59;1.33;;;1.23;;
68479;SDS011;55469;48.934;12.050;2023-04-25T13:23:26;2.20;;;1.38;;
68479;SDS011;55469;48.934;12.050;2023-04-25T13:25:53;1.50;;;1.30;;
68479;SDS011;55469;48.934;12.050;2023-04-25T13:28:20;1.45;;;1.35;;
68479;SDS011;55469;48.934;12.050;2023-04-25T13:30:46;1.40;;;1.30;;
68479;SDS011;55469;48.934;12.050;2023-04-25T13:33:13;1.40;;;1.30;;
68479;SDS011;55469;48.934;12.050;2023-04-25T13:35:39;1.80;;;1.30;;
68479;SDS011;55469;48.934;12.050;2023-04-25T13:38:06;1.65;;;1.40;;
68479;SDS011;55469;48.934;12.050;2023-04-25T13:40:31;1.77;;;1.33;;
68479;SDS011;55469;48.934;12.050;2023-04-25T13:42:57;2.55;;;1.35;;
68479;SDS011;55469;48.934;12.050;2023-04-25T13:45:24;1.40;;;1.30;;
68479;SDS011;55469;48.934;12.050;2023-04-25T13:47:50;2.20;;;1.40;;
68479;SDS011;55469;48.934;12.050;2023-04-25T13:50:15;2.30;;;1.80;;
68479;SDS011;55469;48.934;12.050;2023-04-25T13:52:42;2.28;;;1.48;;
68479;SDS011;55469;48.934;12.050;2023-04-25T13:55:08;1.65;;;1.50;;
68479;SDS011;55469;48.934;12.050;2023-04-25T13:57:34;2.17;;;1.30;;
68479;SDS011;55469;48.934;12.050;2023-04-25T14:00:01;1.90;;;1.60;;
68479;SDS011;55469;48.934;12.050;2023-04-25T14:02:36;2.35;;;1.48;;
68479;SDS011;55469;48.934;12.050;2023-04-25T14:05:06;1.27;;;1.17;;
68479;SDS011;55469;48.934;12.050;2023-04-25T14:07:36;1.50;;;1.40;;
68479;SDS011;55469;48.934;12.050;2023-04-25T14:10:02;1.40;;;1.30;;
68479;SDS011;55469;48.934;12.050;2023-04-25T14:12:30;1.55;;;1.30;;
68479;SDS011;55469;48.934;12.050;2023-04-25T14:14:56;1.30;;;1.20;;
68479;SDS011;55469;48.934;12.050;2023-04-25T14:17:22;2.65;;;1.58;;
68479;SDS011;55469;48.934;12.050;2023-04-25T14:19:49;3.15;;;1.70;;
68479;SDS011;55469;48.934;12.050;2023-04-25T14:22:15;2.53;;;1.58;;
68479;SDS011;55469;48.934;12.050;2023-04-25T14:24:41;2.00;;;1.50;;
68479;SDS011;55469;48.934;12.050;2023-04-25T14:27:06;1.58;;;1.48;;
68479;SDS011;55469;48.934;12.050;2023-04-25T14:29:32;2.00;;;1.40;;
68479;SDS011;55469;48.934;12.050;2023-04-25T14:31:58;3.50;;;1.60;;
68479;SDS011;55469;48.934;12.050;2023-04-25T14:34:24;2.17;;;1.40;;
68479;SDS011;55469;48.934;12.050;2023-04-25T14:36:51;2.55;;;1.70;;
68479;SDS011;55469;48.934;12.050;2023-04-25T14:39:17;1.92;;;1.50;;
68479;SDS011;55469;48.934;12.050;2023-04-25T14:41:43;2.53;;;1.40;;
68479;SDS011;55469;48.934;12.050;2023-04-25T14:44:10;1.42;;;1.30;;
68479;SDS011;55469;48.934;12.050;2023-04-25T14:46:36;1.38;;;1.25;;